createdAt,value
2022-11-20T00:01:34.921Z,87.38
2022-11-20T00:04:03.185Z,87.33
2022-11-20T00:06:31.266Z,87.26
2022-11-20T00:09:01.380Z,87.21
2022-11-20T00:11:31.183Z,87.21
2022-11-20T00:14:02.029Z,87.07
2022-11-20T00:16:32.559Z,87.00
2022-11-20T00:19:00.725Z,86.94
2022-11-20T00:21:30.237Z,86.95
2022-11-20T00:23:59.452Z,86.93
2022-11-20T00:26:28.485Z,86.97
2022-11-20T00:28:59.068Z,87.09
2022-11-20T00:31:28.638Z,87.04
2022-11-20T00:33:57.715Z,86.92
2022-11-20T00:36:27.679Z,86.89
2022-11-20T00:38:58.924Z,86.90
2022-11-20T00:41:28.702Z,86.87
2022-11-20T00:43:57.944Z,86.82
2022-11-20T00:46:27.031Z,86.63
2022-11-20T00:48:55.721Z,86.84
2022-11-20T00:51:26.868Z,86.80
2022-11-20T00:54:01.139Z,86.85
2022-11-20T00:56:29.866Z,86.87
2022-11-20T00:59:04.748Z,86.90
2022-11-20T01:01:32.771Z,86.94
2022-11-20T01:04:01.559Z,87.37
2022-11-20T01:06:32.523Z,87.56
2022-11-20T01:09:03.233Z,87.72
2022-11-20T01:11:34.111Z,87.77
2022-11-20T01:14:05.677Z,87.84
2022-11-20T01:16:39.939Z,87.78
2022-11-20T01:19:17.518Z,87.77
2022-11-20T01:21:48.577Z,87.77
2022-11-20T01:24:19.522Z,87.74
2022-11-20T01:26:50.555Z,87.68
2022-11-20T01:29:24.655Z,87.73
2022-11-20T01:31:53.720Z,87.69
2022-11-20T01:34:23.888Z,87.59
2022-11-20T01:36:53.782Z,87.59
2022-11-20T01:39:25.267Z,87.68
2022-11-20T01:42:14.008Z,87.68
2022-11-20T01:44:51.096Z,87.81
2022-11-20T01:47:31.188Z,87.84
2022-11-20T01:50:30.032Z,87.80
2022-11-20T01:53:03.221Z,87.86
2022-11-20T01:55:35.806Z,88.00
2022-11-20T01:58:05.015Z,88.03
2022-11-20T02:00:33.190Z,88.06
2022-11-20T02:03:06.279Z,88.06
2022-11-20T02:05:46.368Z,87.99
2022-11-20T02:08:14.905Z,88.01
2022-11-20T02:10:43.084Z,88.06
2022-11-20T02:13:30.093Z,87.96
2022-11-20T02:15:58.375Z,87.91
2022-11-20T02:18:27.267Z,87.77
2022-11-20T02:21:03.226Z,88.01
2022-11-20T02:23:54.228Z,88.02
2022-11-20T02:26:24.539Z,88.00
2022-11-20T02:28:52.876Z,88.01
2022-11-20T02:31:21.157Z,87.97
2022-11-20T02:33:49.036Z,88.01
2022-11-20T02:36:17.463Z,88.25
2022-11-20T02:38:45.429Z,88.20
2022-11-20T02:41:13.322Z,88.12
2022-11-20T02:43:41.370Z,88.10
2022-11-20T02:46:09.652Z,87.97
2022-11-20T02:48:37.819Z,87.82
2022-11-20T02:51:05.991Z,87.83
2022-11-20T02:53:34.073Z,87.90
2022-11-20T02:56:02.036Z,87.89
2022-11-20T02:58:29.893Z,87.92
2022-11-20T03:00:57.862Z,87.83
2022-11-20T03:03:25.880Z,87.84
2022-11-20T03:05:54.015Z,87.82
2022-11-20T03:08:21.947Z,87.86
2022-11-20T03:10:49.921Z,87.85
2022-11-20T03:13:17.925Z,87.80
2022-11-20T03:15:46.136Z,87.79
2022-11-20T03:18:14.998Z,87.76
2022-11-20T03:20:42.959Z,87.83
2022-11-20T03:23:10.954Z,87.91
2022-11-20T03:25:38.837Z,87.93
2022-11-20T03:28:06.860Z,87.93
2022-11-20T03:30:35.958Z,87.91
2022-11-20T03:33:03.952Z,87.85
2022-11-20T03:35:31.944Z,87.75
2022-11-20T03:37:59.865Z,87.75
2022-11-20T03:40:28.155Z,87.83
2022-11-20T03:42:56.221Z,87.86
2022-11-20T03:45:24.499Z,87.89
2022-11-20T03:47:52.778Z,88.11
2022-11-20T03:50:20.841Z,88.40
2022-11-20T03:52:48.913Z,88.56
2022-11-20T03:55:17.042Z,88.66
2022-11-20T03:57:44.888Z,88.39
2022-11-20T04:00:13.843Z,88.31
2022-11-20T04:02:41.710Z,88.36
2022-11-20T04:05:09.892Z,88.42
2022-11-20T04:07:37.917Z,88.50
2022-11-20T04:10:06.498Z,88.55
2022-11-20T04:12:34.957Z,88.54
2022-11-20T04:15:03.000Z,88.57
2022-11-20T04:17:30.830Z,88.58
2022-11-20T04:19:58.791Z,88.58
2022-11-20T04:22:27.106Z,88.63
2022-11-20T04:24:55.287Z,88.54
2022-11-20T04:27:23.359Z,88.58
2022-11-20T04:29:51.197Z,88.59
2022-11-20T04:32:19.196Z,88.58
2022-11-20T04:34:47.370Z,88.60
2022-11-20T04:37:15.331Z,88.61
2022-11-20T04:39:43.505Z,88.59
2022-11-20T04:42:29.703Z,88.63
2022-11-20T04:44:58.441Z,88.70
2022-11-20T04:47:26.522Z,88.63
2022-11-20T04:49:55.424Z,88.70
2022-11-20T04:52:23.358Z,88.76
2022-11-20T04:54:53.984Z,88.74
2022-11-20T04:57:22.243Z,88.64
2022-11-20T04:59:50.363Z,88.60
2022-11-20T05:02:18.659Z,88.69
2022-11-20T05:04:46.774Z,88.64
2022-11-20T05:07:15.115Z,88.61
2022-11-20T05:09:43.416Z,88.66
2022-11-20T05:12:11.586Z,88.71
2022-11-20T05:14:39.731Z,88.63
2022-11-20T05:17:11.520Z,88.63
2022-11-20T05:19:39.597Z,88.58
2022-11-20T05:22:07.556Z,88.62
2022-11-20T05:24:35.834Z,88.79
2022-11-20T05:27:03.960Z,88.74
2022-11-20T05:29:31.984Z,88.60
2022-11-20T05:31:59.949Z,88.64
2022-11-20T05:34:28.022Z,88.70
2022-11-20T05:36:55.990Z,88.64
2022-11-20T05:39:24.133Z,88.67
2022-11-20T05:42:12.044Z,88.69
2022-11-20T05:44:40.418Z,88.64
2022-11-20T05:47:08.456Z,88.58
2022-11-20T05:49:36.691Z,88.56
2022-11-20T05:52:05.010Z,88.49
2022-11-20T05:54:33.597Z,88.41
2022-11-20T05:57:01.871Z,88.49
2022-11-20T05:59:30.011Z,88.60
2022-11-20T06:01:58.028Z,88.61
2022-11-20T06:04:26.213Z,88.59
2022-11-20T06:06:54.253Z,88.59
2022-11-20T06:09:22.435Z,88.54
2022-11-20T06:11:50.812Z,88.52
2022-11-20T06:14:18.983Z,88.43
2022-11-20T06:16:46.946Z,88.45
2022-11-20T06:19:16.046Z,88.43
2022-11-20T06:21:43.994Z,88.53
2022-11-20T06:24:12.609Z,88.75
2022-11-20T06:26:40.679Z,88.80
2022-11-20T06:29:08.648Z,88.76
2022-11-20T06:31:38.845Z,88.60
2022-11-20T06:34:07.798Z,88.67
2022-11-20T06:36:35.939Z,88.65
2022-11-20T06:39:04.111Z,88.68
2022-11-20T06:41:32.367Z,88.77
2022-11-20T06:44:00.459Z,88.76
2022-11-20T06:46:28.531Z,88.74
2022-11-20T06:48:56.600Z,88.73
2022-11-20T06:51:24.683Z,88.75
2022-11-20T06:53:52.849Z,88.77
2022-11-20T06:56:20.908Z,88.80
2022-11-20T06:58:48.849Z,88.73
2022-11-20T07:01:17.284Z,88.69
2022-11-20T07:03:48.034Z,88.56
2022-11-20T07:06:19.869Z,88.39
2022-11-20T07:08:48.248Z,88.32
2022-11-20T07:11:16.821Z,88.31
2022-11-20T07:13:44.807Z,88.34
2022-11-20T07:16:12.873Z,88.41
2022-11-20T07:18:43.655Z,88.51
2022-11-20T07:21:14.075Z,88.35
2022-11-20T07:23:42.078Z,88.16
2022-11-20T07:26:11.840Z,88.11
2022-11-20T07:28:40.065Z,88.04
2022-11-20T07:31:08.611Z,88.04
2022-11-20T07:33:36.873Z,87.90
2022-11-20T07:36:05.436Z,87.99
2022-11-20T07:38:33.505Z,87.91
2022-11-20T07:41:04.437Z,87.76
2022-11-20T07:43:34.796Z,87.78
2022-11-20T07:46:06.646Z,88.00
2022-11-20T07:48:34.561Z,88.17
2022-11-20T07:51:02.876Z,88.12
2022-11-20T07:53:30.942Z,88.12
2022-11-20T07:56:03.526Z,88.07
2022-11-20T07:58:34.121Z,87.78
2022-11-20T08:01:07.843Z,87.63
2022-11-20T08:03:38.802Z,87.49
2022-11-20T08:06:07.534Z,87.08
2022-11-20T08:08:38.866Z,86.65
2022-11-20T08:11:29.507Z,86.53
2022-11-20T08:14:12.759Z,86.32
2022-11-20T08:16:40.836Z,86.33
2022-11-20T08:19:08.910Z,86.39
2022-11-20T08:21:41.588Z,86.33
2022-11-20T08:24:11.000Z,86.23
2022-11-20T08:26:40.599Z,86.21
2022-11-20T08:29:08.678Z,86.35
2022-11-20T08:31:36.994Z,86.26
2022-11-20T08:34:25.000Z,85.84
2022-11-20T08:36:53.015Z,85.54
2022-11-20T08:39:21.296Z,85.44
2022-11-20T08:41:50.740Z,85.50
2022-11-20T08:44:18.820Z,85.68
2022-11-20T08:46:48.210Z,85.91
2022-11-20T08:49:16.805Z,85.99
2022-11-20T08:51:44.983Z,85.86
2022-11-20T08:54:13.093Z,85.81
2022-11-20T08:56:41.118Z,85.97
2022-11-20T08:59:43.772Z,85.86
2022-11-20T09:01:57.333Z,85.71
2022-11-20T09:04:25.501Z,85.48
2022-11-20T09:06:53.984Z,85.22
2022-11-20T09:09:22.328Z,85.30
2022-11-20T09:11:51.455Z,85.47
2022-11-20T09:14:19.737Z,85.65
2022-11-20T09:16:47.913Z,85.50
2022-11-20T09:22:04.286Z,85.13
2022-11-20T09:24:32.679Z,85.21
2022-11-20T09:27:03.952Z,85.03
2022-11-20T09:29:31.920Z,85.06
2022-11-20T09:32:00.116Z,84.86
2022-11-20T09:34:28.177Z,83.94
2022-11-20T09:36:56.636Z,84.00
2022-11-20T09:39:24.843Z,83.97
2022-11-20T09:42:18.215Z,83.84
2022-11-20T09:44:55.175Z,83.95
2022-11-20T09:47:41.987Z,83.71
2022-11-20T09:50:38.087Z,82.77
2022-11-20T09:53:14.687Z,82.57
2022-11-20T09:55:42.975Z,82.02
2022-11-20T09:58:31.366Z,82.12
2022-11-20T10:01:21.032Z,82.35
2022-11-20T10:04:10.943Z,81.69
2022-11-20T10:06:59.435Z,81.53
2022-11-20T10:09:40.495Z,81.28
2022-11-20T10:12:14.187Z,81.27
2022-11-20T10:14:48.108Z,80.76
2022-11-20T10:17:31.560Z,80.85
2022-11-20T10:20:14.674Z,80.90
2022-11-20T10:23:04.038Z,80.94
2022-11-20T10:25:43.631Z,80.58
2022-11-20T10:28:23.956Z,80.53
2022-11-20T10:31:01.043Z,80.75
2022-11-20T10:33:56.970Z,80.80
2022-11-20T10:36:31.683Z,80.70
2022-11-20T10:39:16.343Z,80.64
2022-11-20T10:41:50.924Z,80.99
2022-11-20T10:44:41.361Z,81.24
2022-11-20T10:47:20.085Z,81.26
2022-11-20T10:49:54.091Z,81.46
2022-11-20T10:52:57.281Z,81.62
2022-11-20T10:55:43.710Z,81.66
2022-11-20T10:58:38.604Z,81.59
2022-11-20T11:01:16.166Z,81.62
2022-11-20T11:03:45.183Z,81.60
2022-11-20T11:06:25.069Z,81.58
2022-11-20T11:08:56.460Z,81.72
2022-11-20T11:11:35.029Z,81.95
2022-11-20T11:14:11.650Z,82.15
2022-11-20T11:16:57.992Z,82.11
2022-11-20T11:19:26.279Z,81.88
2022-11-20T11:21:59.238Z,81.69
2022-11-20T11:24:45.205Z,81.58
2022-11-20T11:27:18.007Z,81.83
2022-11-20T11:29:47.556Z,81.63
2022-11-20T11:32:18.834Z,81.65
2022-11-20T11:35:00.354Z,81.58
2022-11-20T11:37:36.048Z,81.87
2022-11-20T11:40:27.320Z,81.54
2022-11-20T11:43:03.878Z,81.24
2022-11-20T11:45:32.213Z,81.49
2022-11-20T11:48:04.492Z,81.66
2022-11-20T11:50:32.778Z,81.60
2022-11-20T11:53:04.137Z,81.64
2022-11-20T11:55:45.278Z,81.75
2022-11-20T11:58:35.215Z,81.84
2022-11-20T12:01:08.404Z,82.19
2022-11-20T12:03:39.610Z,82.23
2022-11-20T12:06:14.627Z,82.21
2022-11-20T12:08:49.634Z,82.23
2022-11-20T12:11:26.707Z,82.19
2022-11-20T12:14:05.314Z,82.39
2022-11-20T12:16:37.591Z,82.43
2022-11-20T12:19:13.088Z,82.46
2022-11-20T12:22:08.257Z,82.43
2022-11-20T12:25:13.760Z,82.30
2022-11-20T12:28:03.897Z,82.59
2022-11-20T12:30:39.437Z,82.71
2022-11-20T12:33:20.487Z,82.92
2022-11-20T12:36:01.153Z,82.88
2022-11-20T12:38:42.627Z,82.74
2022-11-20T12:41:52.057Z,82.87
2022-11-20T12:45:10.678Z,82.98
2022-11-20T12:47:57.773Z,83.00
2022-11-20T12:51:00.322Z,83.23
2022-11-20T12:53:43.469Z,83.27
2022-11-20T12:56:33.997Z,83.37
2022-11-20T12:59:14.082Z,83.43
2022-11-20T13:01:51.556Z,83.53
2022-11-20T13:04:38.087Z,83.53
2022-11-20T13:07:13.316Z,83.47
2022-11-20T13:09:50.947Z,83.47
2022-11-20T13:12:42.475Z,83.39
2022-11-20T13:15:31.990Z,83.39
2022-11-20T13:18:02.663Z,83.48
2022-11-20T13:20:33.215Z,83.70
2022-11-20T13:23:01.237Z,83.85
2022-11-20T13:25:40.456Z,83.98
2022-11-20T13:28:11.577Z,84.02
2022-11-20T13:30:51.786Z,84.03
2022-11-20T13:33:28.651Z,84.08
2022-11-20T13:36:02.826Z,83.95
2022-11-20T13:38:47.212Z,84.24
2022-11-20T13:41:36.388Z,84.09
2022-11-20T13:44:11.501Z,83.98
2022-11-20T13:46:48.157Z,83.90
2022-11-20T13:49:27.372Z,83.98
2022-11-20T13:52:20.867Z,83.85
2022-11-20T13:55:01.429Z,83.93
2022-11-20T13:58:10.867Z,83.88
2022-11-20T14:00:59.467Z,83.92
2022-11-20T14:04:04.494Z,83.95
2022-11-20T14:06:50.354Z,84.13
2022-11-20T14:09:33.400Z,84.29
2022-11-20T14:12:03.796Z,84.38
2022-11-20T14:14:34.742Z,84.49
2022-11-20T14:17:18.188Z,84.72
2022-11-20T14:19:48.754Z,84.78
2022-11-20T14:22:24.818Z,84.79
2022-11-20T14:25:28.472Z,84.71
2022-11-20T14:27:59.943Z,84.79
2022-11-20T14:30:30.779Z,84.76
2022-11-20T14:33:03.758Z,84.91
2022-11-20T14:35:36.941Z,85.00
2022-11-20T14:38:13.757Z,85.01
2022-11-20T14:40:43.525Z,85.10
2022-11-20T14:43:24.769Z,85.04
2022-11-20T14:46:09.471Z,84.98
2022-11-20T14:48:45.575Z,85.11
2022-11-20T14:51:46.077Z,85.07
2022-11-20T14:54:27.239Z,85.07
2022-11-20T14:57:31.413Z,85.21
2022-11-20T15:00:29.131Z,85.35
2022-11-20T15:02:57.812Z,85.16
2022-11-20T15:05:46.623Z,85.05
2022-11-20T15:08:20.245Z,85.01
2022-11-20T15:10:52.860Z,85.14
2022-11-20T15:13:38.642Z,85.07
2022-11-20T15:16:19.927Z,85.02
2022-11-20T15:18:49.015Z,85.18
2022-11-20T15:21:22.208Z,85.05
2022-11-20T15:23:50.887Z,84.94
2022-11-20T15:26:29.017Z,84.85
2022-11-20T15:28:57.178Z,84.87
2022-11-20T15:31:25.755Z,84.91
2022-11-20T15:33:54.028Z,84.80
2022-11-20T15:36:23.748Z,84.68
2022-11-20T15:38:52.023Z,84.68
2022-11-20T15:41:20.294Z,84.62
2022-11-20T15:43:48.678Z,84.76
2022-11-20T15:46:29.139Z,84.73
2022-11-20T15:48:58.103Z,84.77
2022-11-20T15:51:33.063Z,84.67
2022-11-20T15:54:21.660Z,84.58
2022-11-20T15:56:54.189Z,84.56
2022-11-20T15:59:22.820Z,84.66
2022-11-20T16:01:56.353Z,84.86
2022-11-20T16:04:28.245Z,84.97
2022-11-20T16:06:57.266Z,84.94
2022-11-20T16:09:25.400Z,84.87
2022-11-20T16:11:55.220Z,85.06
2022-11-20T16:14:41.828Z,85.15
2022-11-20T16:17:09.769Z,85.07
2022-11-20T16:19:38.990Z,84.91
2022-11-20T16:22:12.183Z,84.78
2022-11-20T16:24:40.361Z,84.99
2022-11-20T16:27:11.755Z,85.20
2022-11-20T16:29:39.880Z,85.49
2022-11-20T16:32:11.132Z,85.45
2022-11-20T16:34:40.115Z,85.41
2022-11-20T16:37:08.506Z,85.35
2022-11-20T16:39:36.479Z,85.58
2022-11-20T16:42:34.102Z,85.67
2022-11-20T16:45:02.067Z,85.71
2022-11-20T16:47:34.271Z,85.62
2022-11-20T16:50:05.178Z,85.59
2022-11-20T16:52:34.196Z,85.52
2022-11-20T16:55:02.521Z,85.69
2022-11-20T16:57:35.084Z,85.45
2022-11-20T17:00:04.219Z,85.59
2022-11-20T17:02:32.203Z,85.68
2022-11-20T17:05:00.400Z,85.81
2022-11-20T17:07:28.897Z,85.89
2022-11-20T17:09:56.929Z,85.97
2022-11-20T17:12:25.124Z,86.02
2022-11-20T17:14:53.303Z,86.06
2022-11-20T17:17:21.273Z,86.21
2022-11-20T17:19:49.171Z,86.46
2022-11-20T17:22:17.216Z,86.83
2022-11-20T17:24:45.284Z,86.77
2022-11-20T17:27:13.268Z,86.69
2022-11-20T17:29:42.349Z,86.59
2022-11-20T17:32:10.525Z,86.48
2022-11-20T17:34:39.106Z,86.36
2022-11-20T17:37:07.181Z,86.34
2022-11-20T17:39:35.224Z,86.42
2022-11-20T17:42:23.388Z,86.39
2022-11-20T17:44:51.568Z,86.58
2022-11-20T17:47:19.538Z,86.75
2022-11-20T17:49:47.860Z,86.68
2022-11-20T17:52:15.815Z,86.52
2022-11-20T17:54:43.978Z,86.36
2022-11-20T17:57:32.345Z,86.34
2022-11-20T18:00:00.323Z,86.10
2022-11-20T18:02:29.480Z,85.99
2022-11-20T18:04:57.473Z,86.04
2022-11-20T18:07:25.490Z,85.92
2022-11-20T18:09:53.792Z,85.84
2022-11-20T18:12:22.802Z,85.98
2022-11-20T18:14:51.026Z,85.93
2022-11-20T18:17:19.170Z,85.91
2022-11-20T18:20:07.308Z,85.92
2022-11-20T18:22:38.840Z,85.88
2022-11-20T18:25:08.720Z,85.91
2022-11-20T18:27:37.081Z,85.84
2022-11-20T18:30:06.752Z,85.94
2022-11-20T18:32:36.050Z,85.92
2022-11-20T18:35:05.120Z,85.99
2022-11-20T18:37:33.204Z,85.86
2022-11-20T18:40:01.484Z,85.78
2022-11-20T18:42:49.741Z,85.72
2022-11-20T18:45:17.998Z,85.65
2022-11-20T18:47:46.181Z,85.75
2022-11-20T18:50:15.472Z,85.86
2022-11-20T18:52:45.089Z,85.91
2022-11-20T18:55:14.287Z,86.02
2022-11-20T18:57:42.407Z,86.26
2022-11-20T19:00:12.067Z,86.44
2022-11-20T19:02:42.549Z,86.36
2022-11-20T19:05:13.735Z,86.38
2022-11-20T19:07:42.736Z,86.64
2022-11-20T19:10:11.116Z,86.57
2022-11-20T19:12:39.395Z,86.61
2022-11-20T19:15:07.879Z,86.52
2022-11-20T19:17:35.993Z,86.56
2022-11-20T19:20:04.583Z,86.51
2022-11-20T19:22:32.705Z,86.67
2022-11-20T19:25:00.767Z,86.75
2022-11-20T19:27:28.985Z,86.71
2022-11-20T19:30:03.536Z,86.75
2022-11-20T19:32:33.486Z,86.69
2022-11-20T19:35:01.588Z,86.77
2022-11-20T19:37:33.587Z,86.77
2022-11-20T19:40:04.878Z,86.59
2022-11-20T19:42:33.258Z,86.41
2022-11-20T19:45:03.567Z,86.33
2022-11-20T19:48:06.029Z,86.50
2022-11-20T19:50:21.164Z,86.57
2022-11-20T19:52:50.393Z,86.53
2022-11-20T19:55:21.316Z,86.61
2022-11-20T19:57:50.874Z,86.48
2022-11-20T20:00:26.574Z,86.55
2022-11-20T20:02:59.068Z,86.52
2022-11-20T20:05:27.277Z,86.41
2022-11-20T20:07:56.003Z,86.30
2022-11-20T20:10:24.119Z,86.14
2022-11-20T20:12:53.741Z,86.08
2022-11-20T20:15:21.811Z,86.17
2022-11-20T20:17:53.205Z,86.27
2022-11-20T20:20:21.685Z,86.28
2022-11-20T20:22:49.936Z,86.34
2022-11-20T20:25:18.093Z,86.39
2022-11-20T20:27:47.088Z,86.46
2022-11-20T20:30:15.419Z,86.61
2022-11-20T20:32:43.435Z,86.31
2022-11-20T20:35:11.504Z,86.09
2022-11-20T20:37:39.680Z,85.94
2022-11-20T20:40:14.759Z,85.89
2022-11-20T20:42:43.396Z,85.71
2022-11-20T20:45:11.679Z,85.79
2022-11-20T20:47:41.491Z,85.94
2022-11-20T20:50:13.099Z,86.06
2022-11-20T20:52:41.609Z,86.18
2022-11-20T20:55:09.997Z,86.37
2022-11-20T20:57:38.214Z,86.42
2022-11-20T21:00:08.849Z,86.63
2022-11-20T21:02:36.974Z,86.63
2022-11-20T21:05:05.719Z,86.55
2022-11-20T21:07:34.105Z,86.53
2022-11-20T21:10:02.215Z,86.52
2022-11-20T21:12:30.282Z,86.47
2022-11-20T21:14:58.619Z,86.36
2022-11-20T21:17:27.047Z,86.50
2022-11-20T21:19:55.227Z,86.70
2022-11-20T21:22:23.246Z,86.93
2022-11-20T21:24:51.351Z,86.91
2022-11-20T21:27:19.401Z,87.12
2022-11-20T21:29:47.608Z,87.27
2022-11-20T21:32:15.677Z,87.24
2022-11-20T21:34:43.746Z,87.19
2022-11-20T21:37:11.921Z,87.17
2022-11-20T21:39:50.842Z,87.15
2022-11-20T21:42:19.369Z,87.12
2022-11-20T21:44:47.915Z,87.05
2022-11-20T21:47:15.988Z,87.05
2022-11-20T21:49:44.157Z,87.00
2022-11-20T21:52:12.848Z,87.07
2022-11-20T21:54:40.817Z,87.06
2022-11-20T21:57:08.802Z,87.11
2022-11-20T21:59:37.679Z,87.05
2022-11-20T22:02:05.813Z,86.98
2022-11-20T22:04:33.946Z,86.98
2022-11-20T22:07:01.979Z,86.95
2022-11-20T22:09:30.172Z,86.93
2022-11-20T22:11:58.244Z,86.77
2022-11-20T22:14:26.483Z,86.78
2022-11-20T22:16:54.773Z,86.87
2022-11-20T22:19:23.590Z,86.87
2022-11-20T22:21:52.076Z,86.69
2022-11-20T22:24:22.501Z,86.67
2022-11-20T22:26:50.984Z,86.61
2022-11-20T22:29:21.955Z,86.64
2022-11-20T22:31:53.230Z,86.69
2022-11-20T22:34:21.923Z,86.70
2022-11-20T22:36:50.161Z,86.71
2022-11-20T22:39:18.727Z,86.66
2022-11-20T22:41:47.081Z,86.78
2022-11-20T22:44:16.374Z,86.85
2022-11-20T22:46:44.290Z,86.86
2022-11-20T22:49:12.722Z,86.82
2022-11-20T22:51:41.778Z,86.83
2022-11-20T22:54:12.451Z,86.82
2022-11-20T22:56:41.298Z,86.78
2022-11-20T22:59:09.463Z,86.83
2022-11-20T23:06:10.498Z,86.81
2022-11-20T23:08:39.603Z,86.93
2022-11-20T23:11:10.252Z,86.95
2022-11-20T23:13:39.250Z,86.88
2022-11-20T23:16:10.186Z,86.92
2022-11-20T23:18:39.145Z,86.84
2022-11-20T23:21:10.702Z,86.77
2022-11-20T23:23:38.976Z,86.69
2022-11-20T23:26:10.331Z,86.72
2022-11-20T23:28:39.942Z,86.85
2022-11-20T23:31:08.839Z,86.86
2022-11-20T23:33:41.770Z,86.99
2022-11-20T23:36:10.945Z,87.02
2022-11-20T23:38:39.864Z,86.80
2022-11-20T23:41:08.596Z,86.60
2022-11-20T23:43:37.086Z,86.51
2022-11-20T23:46:06.164Z,86.36
2022-11-20T23:48:36.106Z,86.24
2022-11-20T23:51:05.878Z,86.47
2022-11-20T23:53:34.551Z,86.36
2022-11-20T23:56:05.320Z,86.42
2022-11-20T23:58:36.629Z,86.47
